Terminal Aerodrome Forecast
Issued by NWS

Home | Current Version | Previous Version | Text Only | Print | Product List | Glossary On
Versions: 1 2 3 4 5 6 7 8 9 10 11 12 13 14 15 16 17 18 19 20 21
000
FTUS43 KDLH 260400 AAA
TAFBRD
TAF AMD
KBRD 260403Z 2604/2624 31010KT P6SM SCT024 BKN035
     FM260600 31006KT P6SM SCT026 BKN035
     FM261600 31008KT P6SM FEW050
     FM261900 30011G17KT P6SM SCT060=

USA.gov is the U.S. government's official web portal to all federal, state and local government web resources and services.